Time;durP1;ratioP1;P1;durP2;ratioP2;P2;SDS_P1;SDS_P2;PMS_P1;PMS_P2;Temp;Humidity;BMP_temperature;BMP_pressure;BME280_temperature;BME280_humidity;BME280_pressure;Samples;Min_cycle;Max_cycle;Signal;HPM_P1;HPM_P2
2021/04/29 00:00:33;;;;;;;;;;;14.50;47.60;;;;;;2061488;28;777;-56
2021/04/29 00:01:52;;;;;;;;;;;14.50;48.20;;;;;;2061919;28;1880;-56
2021/04/29 00:03:12;;;;;;;;;;;14.50;47.60;;;;;;2069744;28;2114;-58
2021/04/29 00:04:31;;;;;;;;;;;14.50;47.60;;;;;;2073248;28;743;-56
2021/04/29 00:05:50;;;;;;;;;;;14.50;47.60;;;;;;2073301;28;815;-57
2021/04/29 00:07:09;;;;;;;;;;;14.50;47.60;;;;;;2083210;28;1081;-57
2021/04/29 00:08:28;;;;;;;;;;;14.50;47.60;;;;;;2081185;28;761;-56
2021/04/29 00:09:48;;;;;;;;;;;14.50;47.70;;;;;;2080455;28;1709;-57
2021/04/29 00:11:07;;;;;;;;;;;14.50;47.70;;;;;;2072685;28;878;-56
2021/04/29 00:12:27;;;;;;;;;;;14.50;47.70;;;;;;2072087;28;1065;-56
2021/04/29 00:13:46;;;;;;;;;;;14.50;47.70;;;;;;2085796;28;701;-57
2021/04/29 00:15:05;;;;;;;;;;;14.50;47.80;;;;;;2080943;28;729;-57
2021/04/29 00:16:24;;;;;;;;;;;14.50;47.80;;;;;;2077482;28;800;-56
2021/04/29 00:17:44;;;;;;;;;;;14.50;47.80;;;;;;2086093;28;934;-57
2021/04/29 00:19:03;;;;;;;;;;;14.50;48.40;;;;;;2080794;28;792;-57
2021/04/29 00:20:22;;;;;;;;;;;14.50;48.10;;;;;;2075531;28;1329;-57
2021/04/29 00:21:42;;;;;;;;;;;14.50;47.80;;;;;;2074734;28;1872;-57
2021/04/29 00:23:01;;;;;;;;;;;14.50;47.90;;;;;;2081146;28;1297;-57
2021/04/29 00:24:20;;;;;;;;;;;14.50;47.90;;;;;;2081258;28;685;-56
2021/04/29 00:25:40;;;;;;;;;;;14.50;47.90;;;;;;2080602;28;772;-56
2021/04/29 00:26:59;;;;;;;;;;;14.50;47.90;;;;;;2075568;28;1514;-56
2021/04/29 00:28:18;;;;;;;;;;;14.50;47.90;;;;;;2072325;28;753;-57
2021/04/29 00:29:37;;;;;;;;;;;14.50;47.90;;;;;;2064156;28;727;-57
2021/04/29 00:30:56;;;;;;;;;;;14.50;48.00;;;;;;2071414;28;732;-57
2021/04/29 00:32:16;;;;;;;;;;;14.50;48.00;;;;;;2080972;28;1855;-58
2021/04/29 00:33:35;;;;;;;;;;;14.50;48.00;;;;;;2082751;28;1631;-56
2021/04/29 00:34:54;;;;;;;;;;;14.50;48.00;;;;;;2074043;28;1822;-57
2021/04/29 00:36:13;;;;;;;;;;;14.50;48.10;;;;;;2071196;28;737;-57
2021/04/29 00:37:33;;;;;;;;;;;14.50;48.60;;;;;;2079423;28;780;-57
2021/04/29 00:38:52;;;;;;;;;;;14.50;48.30;;;;;;2083090;28;740;-56
2021/04/29 00:40:11;;;;;;;;;;;14.50;48.10;;;;;;2076872;28;1520;-56
2021/04/29 00:41:30;;;;;;;;;;;14.50;48.10;;;;;;2089174;28;1596;-57
2021/04/29 00:42:50;;;;;;;;;;;14.50;48.10;;;;;;2086653;28;1409;-56
2021/04/29 00:44:09;;;;;;;;;;;14.40;48.10;;;;;;2091239;28;714;-56
2021/04/29 00:45:28;;;;;;;;;;;14.50;48.10;;;;;;2082402;28;781;-57
2021/04/29 00:46:48;;;;;;;;;;;14.50;48.10;;;;;;2087444;28;733;-56
2021/04/29 00:48:07;;;;;;;;;;;14.50;48.10;;;;;;2073994;28;740;-58
2021/04/29 00:49:26;;;;;;;;;;;14.50;48.20;;;;;;2083784;28;744;-57
2021/04/29 00:50:46;;;;;;;;;;;14.50;48.10;;;;;;2082199;28;735;-56
2021/04/29 00:52:05;;;;;;;;;;;14.40;48.10;;;;;;2072004;28;1546;-56
2021/04/29 00:53:31;;;;;;;;;;;14.40;48.10;;;;;;2074326;28;1354;-56
2021/04/29 00:54:51;;;;;;;;;;;14.40;48.70;;;;;;2065977;28;736;-57
2021/04/29 00:56:10;;;;;;;;;;;14.40;48.10;;;;;;2071128;28;1665;-57
2021/04/29 00:57:29;;;;;;;;;;;14.40;48.20;;;;;;2082947;28;696;-56
2021/04/29 00:58:49;;;;;;;;;;;14.40;48.10;;;;;;2082630;28;1093;-56
2021/04/29 01:00:08;;;;;;;;;;;14.40;48.20;;;;;;2065126;28;749;-58
2021/04/29 01:01:28;;;;;;;;;;;14.40;48.20;;;;;;2070333;28;1694;-57
2021/04/29 01:02:48;;;;;;;;;;;14.40;48.20;;;;;;2078725;28;1293;-57
2021/04/29 01:04:11;;;;;;;;;;;14.40;48.70;;;;;;2073677;28;1914;-56
2021/04/29 01:05:32;;;;;;;;;;;14.40;48.20;;;;;;2079308;28;720;-56
2021/04/29 01:06:56;;;;;;;;;;;14.40;48.20;;;;;;2073914;28;775;-56
2021/04/29 01:08:18;;;;;;;;;;;14.40;48.20;;;;;;2063123;28;1511;-57
2021/04/29 01:09:40;;;;;;;;;;;14.40;48.70;;;;;;2065611;28;1015;-57
2021/04/29 01:11:13;;;;;;;;;;;14.40;48.20;;;;;;2086520;28;1040;-56
2021/04/29 01:12:38;;;;;;;;;;;14.40;48.20;;;;;;2072778;28;958;-56
2021/04/29 01:13:58;;;;;;;;;;;14.40;48.20;;;;;;2088206;28;704;-57
2021/04/29 01:15:17;;;;;;;;;;;14.40;48.20;;;;;;2073809;28;743;-57
2021/04/29 01:16:36;;;;;;;;;;;14.40;48.80;;;;;;2084126;28;713;-56
2021/04/29 01:17:55;;;;;;;;;;;14.40;48.70;;;;;;2081993;28;719;-57
2021/04/29 01:19:14;;;;;;;;;;;14.40;48.20;;;;;;2087096;28;745;-57
2021/04/29 01:20:38;;;;;;;;;;;14.40;48.20;;;;;;2082101;28;754;-58
2021/04/29 01:21:57;;;;;;;;;;;14.40;48.20;;;;;;2080275;28;1616;-58
2021/04/29 01:23:27;;;;;;;;;;;14.40;48.20;;;;;;2073585;28;1914;-58
2021/04/29 01:24:47;;;;;;;;;;;14.40;48.20;;;;;;2072044;28;752;-57
2021/04/29 01:26:08;;;;;;;;;;;14.40;48.20;;;;;;2073464;28;1688;-58
2021/04/29 01:27:27;;;;;;;;;;;14.40;48.30;;;;;;2071259;28;728;-58
2021/04/29 01:28:47;;;;;;;;;;;14.40;48.30;;;;;;2073591;28;717;-57
2021/04/29 01:30:07;;;;;;;;;;;14.40;48.30;;;;;;2064950;28;784;-58
2021/04/29 01:31:29;;;;;;;;;;;14.40;48.80;;;;;;2075150;28;1638;-58
2021/04/29 01:32:48;;;;;;;;;;;14.40;48.30;;;;;;2065464;28;1719;-57
2021/04/29 01:34:08;;;;;;;;;;;14.40;48.30;;;;;;2068706;28;1600;-56
2021/04/29 01:35:26;;;;;;;;;;;14.40;48.30;;;;;;2070093;28;1470;-57
2021/04/29 01:36:47;;;;;;;;;;;14.40;48.30;;;;;;2078698;28;1221;-57
2021/04/29 01:38:06;;;;;;;;;;;14.40;48.30;;;;;;2081595;28;711;-56
2021/04/29 01:39:25;;;;;;;;;;;14.40;48.40;;;;;;2072633;28;795;-56
2021/04/29 01:40:45;;;;;;;;;;;14.40;48.40;;;;;;2072416;28;755;-57
2021/04/29 01:42:04;;;;;;;;;;;14.40;48.40;;;;;;2072433;28;1124;-57
2021/04/29 01:43:23;;;;;;;;;;;14.40;48.40;;;;;;2078592;28;1902;-55
2021/04/29 01:44:42;;;;;;;;;;;14.30;48.40;;;;;;2073600;28;720;-56
2021/04/29 01:46:01;;;;;;;;;;;14.30;48.40;;;;;;2070238;28;735;-56
2021/04/29 01:47:20;;;;;;;;;;;14.30;48.90;;;;;;2073530;28;714;-58
2021/04/29 01:48:39;;;;;;;;;;;14.40;49.00;;;;;;2078806;28;737;-58
2021/04/29 01:49:59;;;;;;;;;;;14.40;48.50;;;;;;2069064;28;1463;-56
2021/04/29 01:51:18;;;;;;;;;;;14.40;48.50;;;;;;2075571;28;1505;-56
2021/04/29 01:52:37;;;;;;;;;;;14.30;48.40;;;;;;2067877;28;1397;-55
2021/04/29 01:53:56;;;;;;;;;;;14.30;48.40;;;;;;2070579;28;820;-55
2021/04/29 01:55:15;;;;;;;;;;;14.30;48.40;;;;;;2077530;28;1096;-58
2021/04/29 01:56:35;;;;;;;;;;;14.30;48.40;;;;;;2075795;28;1607;-58
2021/04/29 01:57:55;;;;;;;;;;;14.40;48.50;;;;;;2067232;28;1503;-59
2021/04/29 01:59:14;;;;;;;;;;;14.30;48.40;;;;;;2069667;28;1103;-61
2021/04/29 02:00:33;;;;;;;;;;;14.30;48.50;;;;;;2064417;28;1268;-59
2021/04/29 02:01:53;;;;;;;;;;;14.40;48.50;;;;;;2072104;28;1248;-56
2021/04/29 02:03:12;;;;;;;;;;;14.30;48.50;;;;;;2078696;28;1392;-59
2021/04/29 02:04:31;;;;;;;;;;;14.30;48.50;;;;;;2083818;28;1220;-58
2021/04/29 02:05:50;;;;;;;;;;;14.30;49.00;;;;;;2084833;28;1285;-58
2021/04/29 02:07:09;;;;;;;;;;;14.30;48.50;;;;;;2076114;28;954;-58
2021/04/29 02:08:29;;;;;;;;;;;14.40;48.60;;;;;;2081058;28;1378;-58
2021/04/29 02:09:49;;;;;;;;;;;14.30;48.50;;;;;;2080544;28;1138;-58
2021/04/29 02:11:09;;;;;;;;;;;14.30;48.50;;;;;;2073140;28;1455;-58
2021/04/29 02:12:28;;;;;;;;;;;14.30;48.50;;;;;;2081451;28;1380;-57
2021/04/29 02:13:48;;;;;;;;;;;14.30;48.50;;;;;;2082592;28;1311;-57
2021/04/29 02:15:08;;;;;;;;;;;14.30;48.50;;;;;;2076271;28;1380;-58
2021/04/29 02:16:34;;;;;;;;;;;14.30;48.50;;;;;;2080788;28;1607;-59
2021/04/29 02:17:57;;;;;;;;;;;14.30;48.60;;;;;;2075763;28;1205;-58
2021/04/29 02:19:17;;;;;;;;;;;14.30;48.60;;;;;;2073305;28;1346;-59
2021/04/29 02:20:38;;;;;;;;;;;14.30;48.70;;;;;;2072914;28;1283;-58
2021/04/29 02:21:57;;;;;;;;;;;14.30;48.70;;;;;;2077155;28;1081;-57
2021/04/29 02:23:17;;;;;;;;;;;14.30;48.70;;;;;;2079675;28;1907;-58
2021/04/29 02:24:37;;;;;;;;;;;14.30;48.70;;;;;;2077388;28;1300;-58
2021/04/29 02:25:56;;;;;;;;;;;14.30;48.70;;;;;;2068478;28;1406;-58
2021/04/29 02:27:15;;;;;;;;;;;14.30;48.70;;;;;;2075943;28;1005;-57
2021/04/29 02:28:34;;;;;;;;;;;14.30;48.70;;;;;;2064145;28;877;-58
2021/04/29 02:29:53;;;;;;;;;;;14.30;48.70;;;;;;2066799;28;1224;-58
2021/04/29 02:31:13;;;;;;;;;;;14.30;48.70;;;;;;2072044;28;1418;-58
2021/04/29 02:32:33;;;;;;;;;;;14.30;48.70;;;;;;2081493;28;910;-57
2021/04/29 02:33:52;;;;;;;;;;;14.30;48.80;;;;;;2083495;28;1267;-57
2021/04/29 02:35:12;;;;;;;;;;;14.30;48.80;;;;;;2074981;28;1224;-56
2021/04/29 02:36:35;;;;;;;;;;;14.30;48.80;;;;;;2080684;28;1199;-56
2021/04/29 02:37:54;;;;;;;;;;;14.30;49.40;;;;;;2072523;28;1278;-58
2021/04/29 02:39:13;;;;;;;;;;;14.30;48.80;;;;;;2069820;28;1171;-56
2021/04/29 02:40:32;;;;;;;;;;;14.30;48.80;;;;;;2073053;28;1247;-58
2021/04/29 02:41:52;;;;;;;;;;;14.30;48.80;;;;;;2077216;28;1396;-59
2021/04/29 02:43:11;;;;;;;;;;;14.30;48.80;;;;;;2081242;28;1509;-57
2021/04/29 02:44:30;;;;;;;;;;;14.30;48.80;;;;;;2073999;28;1160;-58
2021/04/29 02:45:50;;;;;;;;;;;14.30;48.80;;;;;;2075724;28;978;-59
2021/04/29 02:47:09;;;;;;;;;;;14.30;48.80;;;;;;2070314;28;852;-58
2021/04/29 02:48:28;;;;;;;;;;;14.30;48.80;;;;;;2069538;28;1258;-56
2021/04/29 02:49:48;;;;;;;;;;;14.30;48.80;;;;;;2077390;28;1333;-56
2021/04/29 02:51:07;;;;;;;;;;;14.30;49.30;;;;;;2079222;28;1474;-57
2021/04/29 02:52:26;;;;;;;;;;;14.30;49.40;;;;;;2071502;28;1420;-56
2021/04/29 02:53:45;;;;;;;;;;;14.30;48.80;;;;;;2070259;28;1384;-58
2021/04/29 02:55:05;;;;;;;;;;;14.30;48.90;;;;;;2077918;28;1127;-58
2021/04/29 02:56:24;;;;;;;;;;;14.30;48.90;;;;;;2082416;28;1116;-58
2021/04/29 02:57:44;;;;;;;;;;;14.30;49.00;;;;;;2072837;28;1160;-57
2021/04/29 02:59:03;;;;;;;;;;;14.30;48.90;;;;;;2072530;28;1054;-58
2021/04/29 03:00:22;;;;;;;;;;;14.30;48.90;;;;;;2079172;28;1101;-57
2021/04/29 03:01:42;;;;;;;;;;;14.30;49.30;;;;;;2073980;28;1302;-58
2021/04/29 03:03:02;;;;;;;;;;;14.40;49.20;;;;;;2069592;28;1444;-57
2021/04/29 03:04:21;;;;;;;;;;;14.30;49.10;;;;;;2078381;28;1032;-58
2021/04/29 03:05:41;;;;;;;;;;;14.40;49.30;;;;;;2073253;28;1279;-57
2021/04/29 03:07:00;;;;;;;;;;;14.30;49.20;;;;;;2079372;28;1339;-58
2021/04/29 03:08:19;;;;;;;;;;;14.30;49.20;;;;;;2072136;28;1185;-58
2021/04/29 03:09:38;;;;;;;;;;;14.30;49.20;;;;;;2072137;28;1232;-56
2021/04/29 03:10:58;;;;;;;;;;;14.30;49.30;;;;;;2078614;28;1486;-57
2021/04/29 03:12:17;;;;;;;;;;;14.30;49.30;;;;;;2072395;28;1368;-57
2021/04/29 03:13:36;;;;;;;;;;;14.30;49.40;;;;;;2078510;28;1436;-57
2021/04/29 03:14:55;;;;;;;;;;;14.30;49.40;;;;;;2080433;28;1386;-58
2021/04/29 03:16:15;;;;;;;;;;;14.30;49.40;;;;;;2070867;28;1115;-57
2021/04/29 03:17:34;;;;;;;;;;;14.30;49.40;;;;;;2072713;28;1234;-57
2021/04/29 03:18:53;;;;;;;;;;;14.30;49.40;;;;;;2077023;28;1297;-58
2021/04/29 03:20:13;;;;;;;;;;;14.30;49.50;;;;;;2069683;28;1181;-56
2021/04/29 03:21:32;;;;;;;;;;;14.30;49.50;;;;;;2069505;28;1402;-56
2021/04/29 03:22:52;;;;;;;;;;;14.30;49.50;;;;;;2081952;28;1511;-57
2021/04/29 03:24:11;;;;;;;;;;;14.30;50.00;;;;;;2078570;28;1973;-58
2021/04/29 03:25:30;;;;;;;;;;;14.30;50.10;;;;;;2072861;28;1429;-57
2021/04/29 03:26:49;;;;;;;;;;;14.30;50.10;;;;;;2078230;28;1253;-58
2021/04/29 03:28:08;;;;;;;;;;;14.30;49.60;;;;;;2082531;28;1216;-58
2021/04/29 03:29:27;;;;;;;;;;;14.30;49.60;;;;;;2083321;28;1263;-56
2021/04/29 03:30:47;;;;;;;;;;;14.30;49.70;;;;;;2080484;28;1202;-57
2021/04/29 03:32:06;;;;;;;;;;;14.30;49.70;;;;;;2072676;28;1233;-59
2021/04/29 03:33:25;;;;;;;;;;;14.30;49.70;;;;;;2077837;28;1453;-57
2021/04/29 03:34:45;;;;;;;;;;;14.40;49.90;;;;;;2073429;28;1281;-58
2021/04/29 03:36:04;;;;;;;;;;;14.30;49.80;;;;;;2081900;28;1101;-57
2021/04/29 03:37:23;;;;;;;;;;;14.30;49.90;;;;;;2081602;28;1320;-57
2021/04/29 03:38:42;;;;;;;;;;;14.30;49.80;;;;;;2072954;28;1375;-58
2021/04/29 03:40:02;;;;;;;;;;;14.30;49.90;;;;;;2077773;28;1039;-57
2021/04/29 03:41:21;;;;;;;;;;;14.30;49.90;;;;;;2076395;28;1456;-58
2021/04/29 03:42:40;;;;;;;;;;;14.30;50.00;;;;;;2076403;28;1527;-57
2021/04/29 03:43:59;;;;;;;;;;;14.30;50.60;;;;;;2072703;28;1906;-58
2021/04/29 03:45:18;;;;;;;;;;;14.30;50.80;;;;;;2079275;28;1257;-58
2021/04/29 03:46:37;;;;;;;;;;;14.30;50.30;;;;;;2073361;28;1412;-58
2021/04/29 03:47:56;;;;;;;;;;;14.30;50.30;;;;;;2070097;28;1182;-56
2021/04/29 03:49:15;;;;;;;;;;;14.30;50.40;;;;;;2070163;28;1159;-56
2021/04/29 03:50:35;;;;;;;;;;;14.30;50.40;;;;;;2074953;28;1377;-58
2021/04/29 03:51:54;;;;;;;;;;;14.30;50.50;;;;;;2073495;28;1446;-57
2021/04/29 03:53:13;;;;;;;;;;;14.30;50.50;;;;;;2080621;28;1453;-58
2021/04/29 03:54:33;;;;;;;;;;;14.30;50.50;;;;;;2071409;28;1429;-57
2021/04/29 03:55:52;;;;;;;;;;;14.30;50.50;;;;;;2078126;28;1120;-57
2021/04/29 03:57:11;;;;;;;;;;;14.20;50.40;;;;;;2084219;28;1230;-57
2021/04/29 03:58:30;;;;;;;;;;;14.20;50.30;;;;;;2082454;28;1164;-57
2021/04/29 03:59:49;;;;;;;;;;;14.30;50.40;;;;;;2081785;28;1296;-57
2021/04/29 04:01:09;;;;;;;;;;;14.20;50.30;;;;;;2073784;28;1258;-55
2021/04/29 04:02:28;;;;;;;;;;;14.20;50.80;;;;;;2079974;28;1321;-56
2021/04/29 04:03:47;;;;;;;;;;;14.30;50.90;;;;;;2073313;28;1902;-56
2021/04/29 04:05:07;;;;;;;;;;;14.20;50.30;;;;;;2079532;28;1107;-58
2021/04/29 04:06:26;;;;;;;;;;;14.30;50.40;;;;;;2068926;28;1028;-58
2021/04/29 04:07:45;;;;;;;;;;;14.20;50.30;;;;;;2074839;28;1197;-58
2021/04/29 04:09:05;;;;;;;;;;;14.30;50.50;;;;;;2080105;28;1447;-58
2021/04/29 04:10:24;;;;;;;;;;;14.20;50.40;;;;;;2063624;28;1132;-58
2021/04/29 04:11:43;;;;;;;;;;;14.20;50.40;;;;;;2058390;28;1463;-55
2021/04/29 04:13:03;;;;;;;;;;;14.30;50.50;;;;;;2076965;28;1582;-55
2021/04/29 04:14:22;;;;;;;;;;;14.20;50.50;;;;;;2071114;28;1141;-55
2021/04/29 04:15:41;;;;;;;;;;;14.20;50.40;;;;;;2077602;28;1209;-58
2021/04/29 04:17:01;;;;;;;;;;;14.20;50.50;;;;;;2080550;28;1107;-57
2021/04/29 04:18:20;;;;;;;;;;;14.30;50.50;;;;;;2079372;28;1293;-58
2021/04/29 04:19:39;;;;;;;;;;;14.20;51.10;;;;;;2080581;28;1125;-56
2021/04/29 04:20:58;;;;;;;;;;;14.20;50.50;;;;;;2082242;28;1559;-56
2021/04/29 04:22:17;;;;;;;;;;;14.20;50.50;;;;;;2070146;28;1171;-55
2021/04/29 04:23:36;;;;;;;;;;;14.20;50.50;;;;;;2076491;28;1926;-59
2021/04/29 04:24:56;;;;;;;;;;;14.20;50.50;;;;;;2080931;28;1078;-56
2021/04/29 04:26:15;;;;;;;;;;;14.20;50.50;;;;;;2079133;28;1282;-56
2021/04/29 04:27:35;;;;;;;;;;;14.20;50.50;;;;;;2081159;28;1092;-55
2021/04/29 04:28:54;;;;;;;;;;;14.20;50.60;;;;;;2080465;28;1284;-56
2021/04/29 04:30:13;;;;;;;;;;;14.20;50.60;;;;;;2078196;28;1002;-58
2021/04/29 04:31:33;;;;;;;;;;;14.20;50.60;;;;;;2080524;28;1367;-56
2021/04/29 04:32:53;;;;;;;;;;;14.20;50.60;;;;;;2063659;28;1356;-57
2021/04/29 04:34:12;;;;;;;;;;;14.20;50.60;;;;;;2074571;28;1090;-58
2021/04/29 04:35:31;;;;;;;;;;;14.20;50.60;;;;;;2070500;28;1577;-58
2021/04/29 04:36:50;;;;;;;;;;;14.20;50.60;;;;;;2076618;28;1459;-57
2021/04/29 04:38:09;;;;;;;;;;;14.20;50.60;;;;;;2085785;28;1527;-58
2021/04/29 04:39:29;;;;;;;;;;;14.20;50.60;;;;;;2080017;28;1238;-56
2021/04/29 04:40:48;;;;;;;;;;;14.20;50.50;;;;;;2070113;28;1180;-57
2021/04/29 04:42:07;;;;;;;;;;;14.20;50.60;;;;;;2076173;28;1175;-59
2021/04/29 04:43:26;;;;;;;;;;;14.20;50.60;;;;;;2079400;28;1976;-58
2021/04/29 04:44:46;;;;;;;;;;;14.30;50.90;;;;;;2079746;28;1277;-58
2021/04/29 04:46:05;;;;;;;;;;;14.30;51.10;;;;;;2072357;28;1222;-58
2021/04/29 04:47:24;;;;;;;;;;;14.30;51.10;;;;;;2072776;28;1368;-59
2021/04/29 04:48:44;;;;;;;;;;;14.30;51.20;;;;;;2067892;28;1088;-59
2021/04/29 04:50:03;;;;;;;;;;;14.30;51.30;;;;;;2076882;28;1104;-59
2021/04/29 04:51:22;;;;;;;;;;;14.30;51.20;;;;;;2079906;28;1376;-57
2021/04/29 04:52:41;;;;;;;;;;;14.30;51.20;;;;;;2072253;28;1476;-59
2021/04/29 04:54:01;;;;;;;;;;;14.30;51.10;;;;;;2076471;28;1245;-59
2021/04/29 04:55:20;;;;;;;;;;;14.30;51.10;;;;;;2079608;28;1397;-59
2021/04/29 04:56:39;;;;;;;;;;;14.20;51.70;;;;;;2071211;28;1280;-59
2021/04/29 04:57:58;;;;;;;;;;;14.30;51.30;;;;;;2077101;28;1088;-58
2021/04/29 04:59:18;;;;;;;;;;;14.30;51.50;;;;;;2069834;28;1406;-59
2021/04/29 05:00:37;;;;;;;;;;;14.20;51.70;;;;;;2076905;28;1156;-59
2021/04/29 05:01:56;;;;;;;;;;;14.30;52.00;;;;;;2080256;28;1665;-59
2021/04/29 05:03:16;;;;;;;;;;;14.20;52.00;;;;;;2069872;28;1531;-58
2021/04/29 05:04:35;;;;;;;;;;;14.20;52.00;;;;;;2076952;28;1045;-60
2021/04/29 05:05:54;;;;;;;;;;;14.20;52.10;;;;;;2063903;28;1276;-58
2021/04/29 05:07:13;;;;;;;;;;;14.20;52.10;;;;;;2073739;28;1215;-58
2021/04/29 05:08:33;;;;;;;;;;;14.20;52.20;;;;;;2080694;28;1212;-58
2021/04/29 05:09:52;;;;;;;;;;;14.20;52.20;;;;;;2081087;28;933;-58
2021/04/29 05:11:11;;;;;;;;;;;14.20;52.20;;;;;;2080892;28;1274;-56
2021/04/29 05:12:30;;;;;;;;;;;14.20;52.30;;;;;;2080064;28;1224;-59
2021/04/29 05:13:49;;;;;;;;;;;14.20;52.90;;;;;;2072327;28;1307;-59
2021/04/29 05:15:09;;;;;;;;;;;14.20;52.40;;;;;;2076657;28;1392;-59
2021/04/29 05:16:28;;;;;;;;;;;14.20;52.40;;;;;;2072948;28;1289;-58
2021/04/29 05:17:49;;;;;;;;;;;14.20;52.40;;;;;;2078686;28;1144;-58
2021/04/29 05:19:08;;;;;;;;;;;14.20;52.40;;;;;;2075142;28;1232;-60
2021/04/29 05:20:28;;;;;;;;;;;14.20;52.40;;;;;;2070240;28;1245;-57
2021/04/29 05:21:47;;;;;;;;;;;14.20;52.40;;;;;;2078282;28;1183;-56
2021/04/29 05:23:06;;;;;;;;;;;14.20;52.40;;;;;;2082332;28;1478;-61
2021/04/29 05:24:26;;;;;;;;;;;14.20;52.30;;;;;;2081512;28;1304;-59
2021/04/29 05:25:45;;;;;;;;;;;14.30;52.30;;;;;;2070985;28;2024;-58
2021/04/29 05:27:04;;;;;;;;;;;14.30;52.10;;;;;;2081847;28;1115;-58
2021/04/29 05:28:23;;;;;;;;;;;14.30;52.20;;;;;;2077204;28;1879;-58
2021/04/29 05:29:43;;;;;;;;;;;14.30;52.70;;;;;;2081169;28;1311;-60
2021/04/29 05:31:02;;;;;;;;;;;14.30;52.60;;;;;;2072840;28;1388;-58
2021/04/29 05:32:21;;;;;;;;;;;14.30;52.00;;;;;;2069961;28;1236;-58
2021/04/29 05:33:40;;;;;;;;;;;14.30;52.00;;;;;;2078720;28;1166;-58
2021/04/29 05:34:59;;;;;;;;;;;14.40;52.00;;;;;;2082326;28;1318;-57
2021/04/29 05:36:19;;;;;;;;;;;14.40;51.90;;;;;;2065503;28;1474;-57
2021/04/29 05:37:38;;;;;;;;;;;14.40;51.80;;;;;;2075440;28;1323;-60
2021/04/29 05:38:57;;;;;;;;;;;14.50;51.80;;;;;;2073462;28;1235;-58
2021/04/29 05:40:17;;;;;;;;;;;14.50;51.70;;;;;;2076803;28;1142;-57
2021/04/29 05:41:36;;;;;;;;;;;14.50;51.70;;;;;;2081803;28;1324;-58
2021/04/29 05:42:55;;;;;;;;;;;14.50;51.60;;;;;;2072473;28;1419;-58
2021/04/29 05:44:14;;;;;;;;;;;14.60;51.90;;;;;;2076142;28;1910;-58
2021/04/29 05:45:33;;;;;;;;;;;14.70;52.00;;;;;;2073673;28;1124;-58
2021/04/29 05:46:53;;;;;;;;;;;14.80;52.00;;;;;;2077403;28;1405;-58
2021/04/29 05:48:12;;;;;;;;;;;14.90;52.40;;;;;;2078840;28;1161;-58
2021/04/29 05:49:31;;;;;;;;;;;14.90;52.30;;;;;;2080983;28;1255;-58
2021/04/29 05:50:50;;;;;;;;;;;14.90;51.60;;;;;;2071501;28;1247;-57
2021/04/29 05:52:10;;;;;;;;;;;15.00;51.60;;;;;;2076647;28;1150;-58
2021/04/29 05:53:29;;;;;;;;;;;15.00;51.50;;;;;;2078709;28;1596;-57
2021/04/29 05:54:49;;;;;;;;;;;15.00;51.30;;;;;;2073448;28;1376;-58
2021/04/29 05:56:08;;;;;;;;;;;15.10;51.30;;;;;;2073122;28;1140;-57
2021/04/29 05:57:27;;;;;;;;;;;15.10;51.20;;;;;;2072049;28;1237;-57
2021/04/29 05:58:47;;;;;;;;;;;15.20;51.20;;;;;;2065311;28;1186;-57
2021/04/29 06:00:06;;;;;;;;;;;15.20;51.20;;;;;;2074723;28;1185;-58
2021/04/29 06:01:31;;;;;;;;;;;15.20;51.10;;;;;;2079225;28;1365;-57
2021/04/29 06:02:50;;;;;;;;;;;15.20;51.00;;;;;;2063248;28;1484;-60
2021/04/29 06:04:09;;;;;;;;;;;15.30;51.00;;;;;;2059424;28;1996;-56
2021/04/29 06:05:28;;;;;;;;;;;15.30;50.90;;;;;;2076312;28;1293;-57
2021/04/29 06:06:48;;;;;;;;;;;15.30;50.90;;;;;;2078699;28;1121;-56
2021/04/29 06:08:07;;;;;;;;;;;15.40;50.90;;;;;;2072232;28;1281;-57
2021/04/29 06:09:26;;;;;;;;;;;15.40;50.80;;;;;;2070021;28;1198;-57
2021/04/29 06:10:45;;;;;;;;;;;15.40;50.70;;;;;;2078378;28;1526;-56
2021/04/29 06:12:05;;;;;;;;;;;15.50;50.70;;;;;;2073074;28;1246;-58
2021/04/29 06:13:24;;;;;;;;;;;15.50;50.60;;;;;;2080774;28;1413;-58
2021/04/29 06:14:43;;;;;;;;;;;15.50;50.60;;;;;;2078581;28;1215;-58
2021/04/29 06:16:03;;;;;;;;;;;15.50;50.50;;;;;;2082124;28;1112;-57
2021/04/29 06:17:22;;;;;;;;;;;15.50;51.10;;;;;;2083672;28;1263;-57
2021/04/29 06:18:41;;;;;;;;;;;15.50;51.10;;;;;;2081919;28;1076;-57
2021/04/29 06:20:00;;;;;;;;;;;15.50;50.50;;;;;;2071783;28;1247;-58
2021/04/29 06:21:19;;;;;;;;;;;15.50;50.50;;;;;;2078636;28;1251;-57
2021/04/29 06:22:39;;;;;;;;;;;15.50;50.50;;;;;;2073211;28;1314;-60
2021/04/29 06:23:58;;;;;;;;;;;15.50;50.60;;;;;;2075740;28;1910;-57
2021/04/29 06:25:18;;;;;;;;;;;15.50;50.50;;;;;;2077941;28;1456;-57
2021/04/29 06:26:37;;;;;;;;;;;15.50;50.60;;;;;;2072969;28;1327;-58
2021/04/29 06:27:59;;;;;;;;;;;15.50;50.60;;;;;;2080182;28;1147;-58
2021/04/29 06:29:18;;;;;;;;;;;15.50;50.60;;;;;;2070662;28;1147;-56
2021/04/29 06:30:38;;;;;;;;;;;15.50;50.60;;;;;;2073267;28;1255;-58
2021/04/29 06:31:58;;;;;;;;;;;15.60;51.30;;;;;;2077662;28;1070;-56
2021/04/29 06:33:18;;;;;;;;;;;15.60;50.70;;;;;;2081928;28;1407;-59
2021/04/29 06:34:38;;;;;;;;;;;15.60;50.70;;;;;;2072383;28;1523;-60
2021/04/29 06:35:57;;;;;;;;;;;15.60;50.60;;;;;;2078895;28;1277;-58
2021/04/29 06:37:16;;;;;;;;;;;15.70;50.70;;;;;;2072877;28;1286;-57
2021/04/29 06:38:36;;;;;;;;;;;15.70;50.60;;;;;;2069015;28;1337;-58
2021/04/29 06:39:56;;;;;;;;;;;15.70;50.60;;;;;;2076984;28;1221;-58
2021/04/29 06:41:15;;;;;;;;;;;15.70;50.60;;;;;;2079722;28;1393;-58
2021/04/29 06:42:34;;;;;;;;;;;15.70;50.60;;;;;;2081290;28;1083;-57
2021/04/29 06:43:53;;;;;;;;;;;15.70;50.50;;;;;;2063341;28;1985;-57
2021/04/29 06:45:13;;;;;;;;;;;15.70;50.60;;;;;;2069714;28;1255;-58
2021/04/29 06:46:32;;;;;;;;;;;15.70;51.10;;;;;;2061589;28;842;-57
2021/04/29 06:47:51;;;;;;;;;;;15.70;51.10;;;;;;2076560;28;885;-60
2021/04/29 06:49:10;;;;;;;;;;;15.70;50.70;;;;;;2072918;28;1251;-58
2021/04/29 06:50:31;;;;;;;;;;;15.70;50.70;;;;;;2079493;28;1282;-57
2021/04/29 06:51:50;;;;;;;;;;;15.70;50.70;;;;;;2079901;28;1619;-58
2021/04/29 06:53:10;;;;;;;;;;;15.70;50.70;;;;;;2080696;28;1572;-58
2021/04/29 06:54:29;;;;;;;;;;;15.70;50.80;;;;;;2070923;28;1478;-59
2021/04/29 06:55:48;;;;;;;;;;;15.70;50.80;;;;;;2068541;28;1322;-57
2021/04/29 06:57:07;;;;;;;;;;;15.70;50.80;;;;;;2078168;28;1177;-59
2021/04/29 06:58:28;;;;;;;;;;;15.70;50.80;;;;;;2079852;28;1141;-60
2021/04/29 06:59:47;;;;;;;;;;;15.70;50.90;;;;;;2072385;28;1239;-60
2021/04/29 07:01:06;;;;;;;;;;;15.60;51.30;;;;;;2078522;28;1129;-60
2021/04/29 07:02:25;;;;;;;;;;;15.60;50.80;;;;;;2080805;28;1521;-60
2021/04/29 07:03:45;;;;;;;;;;;15.60;50.90;;;;;;2070828;28;1930;-60
2021/04/29 07:05:04;;;;;;;;;;;15.60;51.00;;;;;;2078626;28;1070;-59
2021/04/29 07:06:23;;;;;;;;;;;15.60;51.00;;;;;;2072151;28;1168;-60
2021/04/29 07:07:43;;;;;;;;;;;15.60;51.00;;;;;;2069908;28;1278;-60
2021/04/29 07:09:02;;;;;;;;;;;15.60;51.00;;;;;;2078358;28;1058;-59
2021/04/29 07:10:21;;;;;;;;;;;15.60;51.10;;;;;;2072083;28;1321;-58
2021/04/29 07:11:40;;;;;;;;;;;15.60;51.10;;;;;;2078180;28;1619;-60
2021/04/29 07:13:01;;;;;;;;;;;15.60;51.10;;;;;;2081390;28;1468;-60
2021/04/29 07:14:20;;;;;;;;;;;15.60;51.10;;;;;;2081054;28;1298;-58
2021/04/29 07:15:39;;;;;;;;;;;15.60;51.10;;;;;;2072817;28;1257;-60
2021/04/29 07:16:58;;;;;;;;;;;15.60;51.10;;;;;;2077137;28;1235;-59
2021/04/29 07:18:19;;;;;;;;;;;15.60;51.10;;;;;;2083712;28;1109;-57
2021/04/29 07:19:39;;;;;;;;;;;15.60;51.80;;;;;;2064048;28;1189;-60
2021/04/29 07:20:58;;;;;;;;;;;15.60;51.30;;;;;;2074210;28;1072;-60
2021/04/29 07:22:18;;;;;;;;;;;15.60;51.30;;;;;;2076504;28;1295;-58
2021/04/29 07:23:37;;;;;;;;;;;15.60;51.30;;;;;;2080950;28;1988;-58
2021/04/29 07:24:56;;;;;;;;;;;15.50;51.30;;;;;;2081612;28;1357;-58
2021/04/29 07:26:16;;;;;;;;;;;15.50;51.30;;;;;;2081866;28;1147;-58
2021/04/29 07:27:35;;;;;;;;;;;15.50;51.30;;;;;;2084064;28;1298;-58
2021/04/29 07:28:54;;;;;;;;;;;15.50;51.30;;;;;;2082133;28;1319;-58
2021/04/29 07:30:13;;;;;;;;;;;15.50;51.30;;;;;;2079843;28;1788;-58
2021/04/29 07:31:32;;;;;;;;;;;15.50;51.40;;;;;;2080505;28;1219;-60
2021/04/29 07:32:52;;;;;;;;;;;15.50;51.90;;;;;;2081485;28;1446;-58
2021/04/29 07:34:12;;;;;;;;;;;15.50;52.00;;;;;;2072640;28;1418;-59
2021/04/29 07:35:32;;;;;;;;;;;15.50;51.40;;;;;;2068345;28;1334;-57
2021/04/29 07:36:51;;;;;;;;;;;15.50;51.50;;;;;;2077898;28;1106;-59
2021/04/29 07:38:11;;;;;;;;;;;15.50;51.50;;;;;;2072616;28;833;-57
2021/04/29 07:39:30;;;;;;;;;;;15.50;51.50;;;;;;2076809;28;1372;-57
2021/04/29 07:40:49;;;;;;;;;;;15.50;51.50;;;;;;2072762;28;1121;-57
2021/04/29 07:42:08;;;;;;;;;;;15.50;51.60;;;;;;2076911;28;1594;-57
2021/04/29 07:43:28;;;;;;;;;;;15.50;51.60;;;;;;2081988;28;1534;-57
2021/04/29 07:44:47;;;;;;;;;;;15.50;51.60;;;;;;2082312;28;1079;-57
2021/04/29 07:46:06;;;;;;;;;;;15.50;51.60;;;;;;2081548;28;905;-60
2021/04/29 07:47:25;;;;;;;;;;;15.50;51.70;;;;;;2078194;28;997;-59
2021/04/29 07:48:45;;;;;;;;;;;15.50;51.70;;;;;;2079529;28;1617;-58
2021/04/29 07:50:04;;;;;;;;;;;15.50;52.20;;;;;;2083805;28;1017;-58